sensor_id;sensor_type;location;lat;lon;timestamp;P1;durP1;ratioP1;P2;durP2;ratioP2
20695;SDS011;10507;52.754;13.040;2024-03-23T00:53:13;16.10;;;3.27;;
20695;SDS011;10507;52.754;13.040;2024-03-23T00:55:40;12.47;;;3.90;;
20695;SDS011;10507;52.754;13.040;2024-03-23T00:58:06;14.10;;;3.43;;
20695;SDS011;10507;52.754;13.040;2024-03-23T01:00:32;13.83;;;3.20;;
20695;SDS011;10507;52.754;13.040;2024-03-23T01:02:59;12.63;;;3.63;;
20695;SDS011;10507;52.754;13.040;2024-03-23T01:05:24;15.93;;;3.00;;
20695;SDS011;10507;52.754;13.040;2024-03-23T01:07:51;16.27;;;4.30;;
20695;SDS011;10507;52.754;13.040;2024-03-23T01:10:18;14.00;;;2.97;;
20695;SDS011;10507;52.754;13.040;2024-03-23T01:12:45;18.70;;;4.23;;
20695;SDS011;10507;52.754;13.040;2024-03-23T01:15:11;14.67;;;3.20;;
20695;SDS011;10507;52.754;13.040;2024-03-23T01:17:38;11.53;;;2.83;;
20695;SDS011;10507;52.754;13.040;2024-03-23T01:20:03;12.47;;;2.60;;
20695;SDS011;10507;52.754;13.040;2024-03-23T01:22:31;20.03;;;3.70;;
20695;SDS011;10507;52.754;13.040;2024-03-23T01:24:57;10.17;;;3.67;;
20695;SDS011;10507;52.754;13.040;2024-03-23T01:27:25;18.57;;;3.60;;
20695;SDS011;10507;52.754;13.040;2024-03-23T01:29:50;13.23;;;3.17;;
20695;SDS011;10507;52.754;13.040;2024-03-23T01:32:17;13.77;;;3.30;;
20695;SDS011;10507;52.754;13.040;2024-03-23T01:34:43;12.00;;;2.93;;
20695;SDS011;10507;52.754;13.040;2024-03-23T01:37:10;11.95;;;3.13;;
20695;SDS011;10507;52.754;13.040;2024-03-23T01:39:36;13.73;;;3.23;;
20695;SDS011;10507;52.754;13.040;2024-03-23T01:42:03;12.88;;;3.38;;
20695;SDS011;10507;52.754;13.040;2024-03-23T01:44:31;13.90;;;3.37;;
20695;SDS011;10507;52.754;13.040;2024-03-23T01:46:58;15.20;;;3.67;;
20695;SDS011;10507;52.754;13.040;2024-03-23T01:49:23;12.83;;;3.50;;
20695;SDS011;10507;52.754;13.040;2024-03-23T01:51:50;10.93;;;3.23;;
20695;SDS011;10507;52.754;13.040;2024-03-23T01:54:16;12.10;;;3.30;;
20695;SDS011;10507;52.754;13.040;2024-03-23T01:56:43;13.50;;;3.50;;
20695;SDS011;10507;52.754;13.040;2024-03-23T01:59:08;14.30;;;3.57;;
20695;SDS011;10507;52.754;13.040;2024-03-23T02:01:37;14.43;;;3.30;;
20695;SDS011;10507;52.754;13.040;2024-03-23T02:04:02;16.67;;;4.17;;
20695;SDS011;10507;52.754;13.040;2024-03-23T02:06:29;15.50;;;3.13;;
20695;SDS011;10507;52.754;13.040;2024-03-23T02:08:55;17.27;;;3.43;;
20695;SDS011;10507;52.754;13.040;2024-03-23T02:11:22;16.50;;;3.63;;
20695;SDS011;10507;52.754;13.040;2024-03-23T02:13:48;13.17;;;3.67;;
20695;SDS011;10507;52.754;13.040;2024-03-23T02:16:14;15.40;;;3.43;;
20695;SDS011;10507;52.754;13.040;2024-03-23T02:18:41;19.90;;;4.47;;
20695;SDS011;10507;52.754;13.040;2024-03-23T02:21:08;13.70;;;4.07;;
20695;SDS011;10507;52.754;13.040;2024-03-23T02:23:35;19.53;;;4.10;;
20695;SDS011;10507;52.754;13.040;2024-03-23T02:26:02;17.00;;;3.77;;
20695;SDS011;10507;52.754;13.040;2024-03-23T02:28:28;17.63;;;4.17;;
20695;SDS011;10507;52.754;13.040;2024-03-23T02:30:55;11.77;;;3.73;;
20695;SDS011;10507;52.754;13.040;2024-03-23T02:33:20;18.50;;;3.53;;
20695;SDS011;10507;52.754;13.040;2024-03-23T02:35:47;17.27;;;3.33;;
20695;SDS011;10507;52.754;13.040;2024-03-23T02:38:13;13.13;;;3.13;;
20695;SDS011;10507;52.754;13.040;2024-03-23T02:40:41;11.67;;;3.47;;
20695;SDS011;10507;52.754;13.040;2024-03-23T02:43:06;16.70;;;4.77;;
20695;SDS011;10507;52.754;13.040;2024-03-23T02:45:33;17.97;;;3.90;;
20695;SDS011;10507;52.754;13.040;2024-03-23T02:47:59;14.23;;;3.53;;
20695;SDS011;10507;52.754;13.040;2024-03-23T02:50:25;13.27;;;3.03;;
20695;SDS011;10507;52.754;13.040;2024-03-23T02:52:51;11.87;;;3.93;;
20695;SDS011;10507;52.754;13.040;2024-03-23T02:55:18;14.93;;;3.73;;
20695;SDS011;10507;52.754;13.040;2024-03-23T02:57:45;18.07;;;4.07;;
20695;SDS011;10507;52.754;13.040;2024-03-23T03:00:12;15.77;;;3.77;;
20695;SDS011;10507;52.754;13.040;2024-03-23T03:02:38;17.57;;;4.27;;
20695;SDS011;10507;52.754;13.040;2024-03-23T03:05:05;10.70;;;2.73;;
20695;SDS011;10507;52.754;13.040;2024-03-23T03:07:31;10.80;;;3.97;;
20695;SDS011;10507;52.754;13.040;2024-03-23T03:09:58;12.07;;;3.57;;
20695;SDS011;10507;52.754;13.040;2024-03-23T03:12:24;16.20;;;3.15;;
20695;SDS011;10507;52.754;13.040;2024-03-23T03:14:52;15.03;;;3.50;;
20695;SDS011;10507;52.754;13.040;2024-03-23T03:17:18;10.30;;;3.00;;
20695;SDS011;10507;52.754;13.040;2024-03-23T03:19:44;13.38;;;3.45;;
20695;SDS011;10507;52.754;13.040;2024-03-23T03:22:10;12.70;;;2.97;;
20695;SDS011;10507;52.754;13.040;2024-03-23T03:24:37;16.57;;;3.70;;
20695;SDS011;10507;52.754;13.040;2024-03-23T03:27:03;12.93;;;3.07;;
20695;SDS011;10507;52.754;13.040;2024-03-23T03:29:31;11.03;;;3.23;;
20695;SDS011;10507;52.754;13.040;2024-03-23T03:32:02;13.47;;;3.40;;
20695;SDS011;10507;52.754;13.040;2024-03-23T03:34:29;17.60;;;4.20;;
20695;SDS011;10507;52.754;13.040;2024-03-23T03:36:54;12.97;;;3.67;;
20695;SDS011;10507;52.754;13.040;2024-03-23T03:39:21;15.40;;;3.80;;
20695;SDS011;10507;52.754;13.040;2024-03-23T03:41:47;14.57;;;3.40;;
20695;SDS011;10507;52.754;13.040;2024-03-23T03:44:14;15.60;;;3.83;;
20695;SDS011;10507;52.754;13.040;2024-03-23T03:46:40;11.70;;;3.53;;
20695;SDS011;10507;52.754;13.040;2024-03-23T03:49:08;17.97;;;3.97;;
20695;SDS011;10507;52.754;13.040;2024-03-23T03:51:34;15.30;;;4.23;;
20695;SDS011;10507;52.754;13.040;2024-03-23T03:54:00;14.27;;;4.13;;
20695;SDS011;10507;52.754;13.040;2024-03-23T03:56:27;14.40;;;3.80;;
20695;SDS011;10507;52.754;13.040;2024-03-23T03:58:54;18.63;;;4.77;;
20695;SDS011;10507;52.754;13.040;2024-03-23T04:01:19;14.97;;;3.70;;
20695;SDS011;10507;52.754;13.040;2024-03-23T04:03:46;18.63;;;4.27;;
20695;SDS011;10507;52.754;13.040;2024-03-23T04:06:22;15.67;;;4.07;;
20695;SDS011;10507;52.754;13.040;2024-03-23T04:08:49;11.07;;;4.27;;
20695;SDS011;10507;52.754;13.040;2024-03-23T04:11:15;15.23;;;3.50;;
20695;SDS011;10507;52.754;13.040;2024-03-23T04:13:41;14.77;;;3.70;;
20695;SDS011;10507;52.754;13.040;2024-03-23T04:16:08;11.57;;;3.93;;
20695;SDS011;10507;52.754;13.040;2024-03-23T04:18:35;13.47;;;3.07;;
20695;SDS011;10507;52.754;13.040;2024-03-23T04:21:00;11.50;;;3.40;;
20695;SDS011;10507;52.754;13.040;2024-03-23T04:23:29;11.00;;;3.13;;
20695;SDS011;10507;52.754;13.040;2024-03-23T04:25:54;16.47;;;4.53;;
20695;SDS011;10507;52.754;13.040;2024-03-23T04:28:21;10.47;;;2.93;;
20695;SDS011;10507;52.754;13.040;2024-03-23T04:30:47;13.10;;;3.83;;
20695;SDS011;10507;52.754;13.040;2024-03-23T04:33:14;15.10;;;3.97;;
20695;SDS011;10507;52.754;13.040;2024-03-23T04:35:39;11.20;;;2.90;;
20695;SDS011;10507;52.754;13.040;2024-03-23T04:38:06;12.17;;;3.10;;
20695;SDS011;10507;52.754;13.040;2024-03-23T04:40:34;9.03;;;2.13;;
20695;SDS011;10507;52.754;13.040;2024-03-23T04:43:01;11.03;;;3.03;;
20695;SDS011;10507;52.754;13.040;2024-03-23T04:45:29;12.00;;;2.87;;
20695;SDS011;10507;52.754;13.040;2024-03-23T04:47:56;15.53;;;4.20;;
20695;SDS011;10507;52.754;13.040;2024-03-23T04:50:22;11.97;;;3.17;;
20695;SDS011;10507;52.754;13.040;2024-03-23T04:52:49;9.27;;;3.13;;
20695;SDS011;10507;52.754;13.040;2024-03-23T04:55:16;12.70;;;2.63;;
20695;SDS011;10507;52.754;13.040;2024-03-23T04:57:44;12.10;;;3.27;;
20695;SDS011;10507;52.754;13.040;2024-03-23T05:00:11;11.57;;;2.57;;
20695;SDS011;10507;52.754;13.040;2024-03-23T05:02:42;8.00;;;2.83;;
20695;SDS011;10507;52.754;13.040;2024-03-23T05:05:10;12.77;;;3.27;;
20695;SDS011;10507;52.754;13.040;2024-03-23T05:07:36;14.00;;;2.70;;
20695;SDS011;10507;52.754;13.040;2024-03-23T05:10:03;13.57;;;3.20;;
20695;SDS011;10507;52.754;13.040;2024-03-23T05:12:29;13.23;;;3.17;;
20695;SDS011;10507;52.754;13.040;2024-03-23T05:14:57;9.67;;;2.67;;
20695;SDS011;10507;52.754;13.040;2024-03-23T05:17:23;9.40;;;2.47;;
20695;SDS011;10507;52.754;13.040;2024-03-23T05:19:50;10.87;;;2.53;;
20695;SDS011;10507;52.754;13.040;2024-03-23T05:22:15;9.17;;;2.50;;
20695;SDS011;10507;52.754;13.040;2024-03-23T05:24:44;11.70;;;2.53;;
20695;SDS011;10507;52.754;13.040;2024-03-23T05:27:10;13.20;;;4.40;;
20695;SDS011;10507;52.754;13.040;2024-03-23T05:29:36;9.03;;;2.97;;
20695;SDS011;10507;52.754;13.040;2024-03-23T05:32:04;11.40;;;2.87;;
20695;SDS011;10507;52.754;13.040;2024-03-23T05:34:30;7.57;;;3.40;;
20695;SDS011;10507;52.754;13.040;2024-03-23T05:36:56;9.53;;;2.60;;
20695;SDS011;10507;52.754;13.040;2024-03-23T05:39:23;10.90;;;3.17;;
20695;SDS011;10507;52.754;13.040;2024-03-23T05:41:49;8.83;;;2.73;;
20695;SDS011;10507;52.754;13.040;2024-03-23T05:44:16;8.83;;;3.07;;
20695;SDS011;10507;52.754;13.040;2024-03-23T05:46:41;7.67;;;2.70;;
20695;SDS011;10507;52.754;13.040;2024-03-23T05:49:15;11.10;;;2.20;;
20695;SDS011;10507;52.754;13.040;2024-03-23T05:51:41;14.80;;;2.80;;
20695;SDS011;10507;52.754;13.040;2024-03-23T05:54:07;11.07;;;2.97;;
20695;SDS011;10507;52.754;13.040;2024-03-23T05:56:33;10.57;;;2.70;;
20695;SDS011;10507;52.754;13.040;2024-03-23T05:59:00;9.70;;;2.63;;
20695;SDS011;10507;52.754;13.040;2024-03-23T06:01:25;8.07;;;2.53;;
20695;SDS011;10507;52.754;13.040;2024-03-23T06:03:53;6.50;;;2.20;;
20695;SDS011;10507;52.754;13.040;2024-03-23T06:06:21;10.70;;;3.20;;
20695;SDS011;10507;52.754;13.040;2024-03-23T06:08:47;9.07;;;2.43;;
20695;SDS011;10507;52.754;13.040;2024-03-23T06:11:13;8.17;;;2.13;;
20695;SDS011;10507;52.754;13.040;2024-03-23T06:13:39;9.73;;;2.67;;
20695;SDS011;10507;52.754;13.040;2024-03-23T06:16:05;10.00;;;3.67;;
20695;SDS011;10507;52.754;13.040;2024-03-23T06:18:32;9.63;;;2.80;;
20695;SDS011;10507;52.754;13.040;2024-03-23T06:20:58;11.77;;;2.57;;
20695;SDS011;10507;52.754;13.040;2024-03-23T06:23:26;11.60;;;2.70;;
20695;SDS011;10507;52.754;13.040;2024-03-23T06:25:51;7.27;;;2.10;;
20695;SDS011;10507;52.754;13.040;2024-03-23T06:28:18;8.77;;;2.50;;
20695;SDS011;10507;52.754;13.040;2024-03-23T06:30:44;8.73;;;2.60;;
20695;SDS011;10507;52.754;13.040;2024-03-23T06:33:10;5.03;;;2.20;;
20695;SDS011;10507;52.754;13.040;2024-03-23T06:35:36;6.47;;;2.50;;
20695;SDS011;10507;52.754;13.040;2024-03-23T06:38:03;13.87;;;3.33;;
20695;SDS011;10507;52.754;13.040;2024-03-23T06:40:30;10.40;;;2.50;;
20695;SDS011;10507;52.754;13.040;2024-03-23T06:42:56;5.47;;;1.80;;
20695;SDS011;10507;52.754;13.040;2024-03-23T06:45:22;9.27;;;2.93;;
20695;SDS011;10507;52.754;13.040;2024-03-23T06:47:49;5.23;;;1.60;;
20695;SDS011;10507;52.754;13.040;2024-03-23T06:50:15;6.33;;;1.80;;
20695;SDS011;10507;52.754;13.040;2024-03-23T06:52:42;7.97;;;2.17;;
20695;SDS011;10507;52.754;13.040;2024-03-23T06:55:08;5.60;;;2.00;;
20695;SDS011;10507;52.754;13.040;2024-03-23T06:57:36;13.07;;;2.90;;
20695;SDS011;10507;52.754;13.040;2024-03-23T07:00:04;6.50;;;1.63;;
20695;SDS011;10507;52.754;13.040;2024-03-23T07:02:35;6.80;;;1.83;;
20695;SDS011;10507;52.754;13.040;2024-03-23T07:05:01;7.27;;;2.00;;
20695;SDS011;10507;52.754;13.040;2024-03-23T07:07:28;7.80;;;2.00;;
20695;SDS011;10507;52.754;13.040;2024-03-23T07:09:55;8.80;;;2.27;;
20695;SDS011;10507;52.754;13.040;2024-03-23T07:12:22;5.80;;;1.70;;
20695;SDS011;10507;52.754;13.040;2024-03-23T07:14:49;4.30;;;1.50;;
20695;SDS011;10507;52.754;13.040;2024-03-23T07:17:15;5.20;;;1.67;;
20695;SDS011;10507;52.754;13.040;2024-03-23T07:19:42;6.53;;;1.80;;
20695;SDS011;10507;52.754;13.040;2024-03-23T07:22:09;7.33;;;1.80;;
20695;SDS011;10507;52.754;13.040;2024-03-23T07:24:35;5.57;;;1.80;;
20695;SDS011;10507;52.754;13.040;2024-03-23T07:27:04;7.13;;;1.77;;
20695;SDS011;10507;52.754;13.040;2024-03-23T07:29:30;6.37;;;2.47;;
20695;SDS011;10507;52.754;13.040;2024-03-23T07:31:59;8.03;;;2.13;;
20695;SDS011;10507;52.754;13.040;2024-03-23T07:34:24;14.80;;;3.47;;
20695;SDS011;10507;52.754;13.040;2024-03-23T07:36:51;9.97;;;2.10;;
20695;SDS011;10507;52.754;13.040;2024-03-23T07:39:18;9.47;;;2.40;;
20695;SDS011;10507;52.754;13.040;2024-03-23T07:41:44;6.17;;;1.70;;
20695;SDS011;10507;52.754;13.040;2024-03-23T07:44:11;9.33;;;2.57;;
20695;SDS011;10507;52.754;13.040;2024-03-23T07:46:37;7.13;;;1.90;;
20695;SDS011;10507;52.754;13.040;2024-03-23T07:49:05;8.37;;;1.57;;
20695;SDS011;10507;52.754;13.040;2024-03-23T07:51:30;3.40;;;1.60;;
20695;SDS011;10507;52.754;13.040;2024-03-23T07:53:58;8.13;;;2.00;;
20695;SDS011;10507;52.754;13.040;2024-03-23T07:56:23;3.80;;;1.57;;
20695;SDS011;10507;52.754;13.040;2024-03-23T07:58:50;5.43;;;1.30;;
20695;SDS011;10507;52.754;13.040;2024-03-23T08:01:16;3.80;;;1.40;;
20695;SDS011;10507;52.754;13.040;2024-03-23T08:03:43;5.33;;;1.30;;
20695;SDS011;10507;52.754;13.040;2024-03-23T08:06:12;5.13;;;1.40;;
20695;SDS011;10507;52.754;13.040;2024-03-23T08:08:40;3.73;;;1.50;;
20695;SDS011;10507;52.754;13.040;2024-03-23T08:11:06;3.93;;;1.57;;
20695;SDS011;10507;52.754;13.040;2024-03-23T08:13:33;2.93;;;1.17;;
20695;SDS011;10507;52.754;13.040;2024-03-23T08:15:59;3.37;;;1.63;;
20695;SDS011;10507;52.754;13.040;2024-03-23T08:18:27;6.10;;;1.70;;
20695;SDS011;10507;52.754;13.040;2024-03-23T08:20:56;4.63;;;1.40;;
20695;SDS011;10507;52.754;13.040;2024-03-23T08:23:25;5.20;;;1.77;;
20695;SDS011;10507;52.754;13.040;2024-03-23T08:25:57;6.43;;;1.80;;
20695;SDS011;10507;52.754;13.040;2024-03-23T08:28:24;5.80;;;1.77;;
20695;SDS011;10507;52.754;13.040;2024-03-23T08:30:49;7.47;;;2.33;;
20695;SDS011;10507;52.754;13.040;2024-03-23T08:33:16;6.30;;;1.57;;
20695;SDS011;10507;52.754;13.040;2024-03-23T08:35:42;4.93;;;2.00;;
20695;SDS011;10507;52.754;13.040;2024-03-23T08:38:09;4.40;;;1.80;;
20695;SDS011;10507;52.754;13.040;2024-03-23T08:40:36;6.10;;;2.00;;
20695;SDS011;10507;52.754;13.040;2024-03-23T08:43:02;5.93;;;1.80;;
20695;SDS011;10507;52.754;13.040;2024-03-23T08:45:28;7.00;;;1.90;;
20695;SDS011;10507;52.754;13.040;2024-03-23T08:47:55;8.37;;;2.10;;
20695;SDS011;10507;52.754;13.040;2024-03-23T08:50:20;5.43;;;1.33;;
20695;SDS011;10507;52.754;13.040;2024-03-23T08:52:47;6.80;;;1.90;;
20695;SDS011;10507;52.754;13.040;2024-03-23T08:55:12;4.87;;;1.40;;
20695;SDS011;10507;52.754;13.040;2024-03-23T08:57:41;12.07;;;2.27;;
20695;SDS011;10507;52.754;13.040;2024-03-23T09:00:06;7.70;;;2.57;;
20695;SDS011;10507;52.754;13.040;2024-03-23T09:02:34;8.63;;;2.33;;
20695;SDS011;10507;52.754;13.040;2024-03-23T09:04:59;7.47;;;2.00;;
20695;SDS011;10507;52.754;13.040;2024-03-23T09:07:29;9.00;;;2.50;;
20695;SDS011;10507;52.754;13.040;2024-03-23T09:09:55;6.77;;;2.07;;
20695;SDS011;10507;52.754;13.040;2024-03-23T09:12:22;10.87;;;2.37;;
20695;SDS011;10507;52.754;13.040;2024-03-23T09:14:49;9.20;;;2.10;;
20695;SDS011;10507;52.754;13.040;2024-03-23T09:17:16;4.23;;;1.70;;
20695;SDS011;10507;52.754;13.040;2024-03-23T09:19:43;7.03;;;2.00;;
20695;SDS011;10507;52.754;13.040;2024-03-23T09:22:10;7.43;;;1.83;;
20695;SDS011;10507;52.754;13.040;2024-03-23T09:24:36;11.83;;;1.80;;
20695;SDS011;10507;52.754;13.040;2024-03-23T09:27:03;10.17;;;2.30;;
20695;SDS011;10507;52.754;13.040;2024-03-23T09:29:29;8.07;;;2.50;;
20695;SDS011;10507;52.754;13.040;2024-03-23T09:31:57;7.67;;;1.90;;
20695;SDS011;10507;52.754;13.040;2024-03-23T09:34:22;6.30;;;1.90;;
20695;SDS011;10507;52.754;13.040;2024-03-23T09:36:50;5.60;;;2.17;;
20695;SDS011;10507;52.754;13.040;2024-03-23T09:39:16;7.13;;;1.60;;
20695;SDS011;10507;52.754;13.040;2024-03-23T09:41:44;8.60;;;2.03;;
20695;SDS011;10507;52.754;13.040;2024-03-23T09:44:09;5.57;;;1.85;;
20695;SDS011;10507;52.754;13.040;2024-03-23T09:46:36;9.00;;;1.90;;
20695;SDS011;10507;52.754;13.040;2024-03-23T09:49:05;7.90;;;2.27;;
20695;SDS011;10507;52.754;13.040;2024-03-23T09:51:35;9.17;;;1.93;;
20695;SDS011;10507;52.754;13.040;2024-03-23T09:54:01;7.47;;;2.07;;
20695;SDS011;10507;52.754;13.040;2024-03-23T09:56:28;9.77;;;1.80;;
20695;SDS011;10507;52.754;13.040;2024-03-23T09:58:59;6.67;;;2.07;;
20695;SDS011;10507;52.754;13.040;2024-03-23T10:01:26;10.30;;;2.90;;
20695;SDS011;10507;52.754;13.040;2024-03-23T10:03:52;10.10;;;2.72;;
20695;SDS011;10507;52.754;13.040;2024-03-23T10:06:22;8.20;;;2.28;;
20695;SDS011;10507;52.754;13.040;2024-03-23T10:08:49;5.35;;;2.00;;
20695;SDS011;10507;52.754;13.040;2024-03-23T10:11:16;9.70;;;2.25;;
20695;SDS011;10507;52.754;13.040;2024-03-23T10:13:42;6.70;;;1.90;;
20695;SDS011;10507;52.754;13.040;2024-03-23T10:16:11;7.63;;;1.80;;
20695;SDS011;10507;52.754;13.040;2024-03-23T10:18:37;8.05;;;2.22;;
20695;SDS011;10507;52.754;13.040;2024-03-23T10:21:07;5.43;;;1.48;;
20695;SDS011;10507;52.754;13.040;2024-03-23T10:23:37;7.43;;;1.60;;
20695;SDS011;10507;52.754;13.040;2024-03-23T10:26:18;7.55;;;1.92;;
20695;SDS011;10507;52.754;13.040;2024-03-23T10:28:52;6.10;;;2.10;;
20695;SDS011;10507;52.754;13.040;2024-03-23T10:31:22;10.98;;;2.33;;
20695;SDS011;10507;52.754;13.040;2024-03-23T10:33:48;13.70;;;3.83;;
20695;SDS011;10507;52.754;13.040;2024-03-23T10:36:15;11.68;;;4.15;;
20695;SDS011;10507;52.754;13.040;2024-03-23T10:38:45;15.77;;;4.70;;
20695;SDS011;10507;52.754;13.040;2024-03-23T10:41:12;12.25;;;3.75;;
20695;SDS011;10507;52.754;13.040;2024-03-23T10:43:38;16.80;;;4.13;;
20695;SDS011;10507;52.754;13.040;2024-03-23T10:46:05;14.07;;;3.10;;
20695;SDS011;10507;52.754;13.040;2024-03-23T10:48:32;12.85;;;3.35;;
20695;SDS011;10507;52.754;13.040;2024-03-23T10:50:59;11.85;;;3.58;;
20695;SDS011;10507;52.754;13.040;2024-03-23T10:53:25;12.03;;;3.23;;
20695;SDS011;10507;52.754;13.040;2024-03-23T10:55:55;9.57;;;3.13;;
20695;SDS011;10507;52.754;13.040;2024-03-23T10:58:22;13.73;;;3.67;;
20695;SDS011;10507;52.754;13.040;2024-03-23T11:00:51;12.35;;;3.42;;
20695;SDS011;10507;52.754;13.040;2024-03-23T11:03:32;15.88;;;3.97;;
20695;SDS011;10507;52.754;13.040;2024-03-23T11:05:59;12.82;;;3.45;;
20695;SDS011;10507;52.754;13.040;2024-03-23T11:08:35;16.07;;;4.00;;
20695;SDS011;10507;52.754;13.040;2024-03-23T11:11:14;11.70;;;3.07;;
20695;SDS011;10507;52.754;13.040;2024-03-23T11:13:42;10.05;;;3.03;;
20695;SDS011;10507;52.754;13.040;2024-03-23T11:16:15;15.75;;;3.85;;
20695;SDS011;10507;52.754;13.040;2024-03-23T11:18:42;10.27;;;2.67;;
20695;SDS011;10507;52.754;13.040;2024-03-23T11:21:10;8.98;;;2.83;;
20695;SDS011;10507;52.754;13.040;2024-03-23T11:23:35;14.13;;;3.00;;
20695;SDS011;10507;52.754;13.040;2024-03-23T11:26:02;12.47;;;3.67;;
20695;SDS011;10507;52.754;13.040;2024-03-23T11:28:34;14.70;;;3.53;;
20695;SDS011;10507;52.754;13.040;2024-03-23T11:31:00;11.60;;;3.40;;
20695;SDS011;10507;52.754;13.040;2024-03-23T11:33:26;15.80;;;3.70;;
20695;SDS011;10507;52.754;13.040;2024-03-23T11:35:54;10.93;;;2.92;;
20695;SDS011;10507;52.754;13.040;2024-03-23T11:38:19;8.93;;;3.13;;
20695;SDS011;10507;52.754;13.040;2024-03-23T11:40:46;10.18;;;2.72;;
20695;SDS011;10507;52.754;13.040;2024-03-23T11:43:13;11.18;;;3.53;;
20695;SDS011;10507;52.754;13.040;2024-03-23T11:45:43;11.63;;;3.40;;
20695;SDS011;10507;52.754;13.040;2024-03-23T11:48:10;11.57;;;3.00;;
20695;SDS011;10507;52.754;13.040;2024-03-23T11:50:38;11.15;;;2.85;;
20695;SDS011;10507;52.754;13.040;2024-03-23T11:53:06;9.63;;;2.72;;
20695;SDS011;10507;52.754;13.040;2024-03-23T11:55:41;11.63;;;3.25;;
20695;SDS011;10507;52.754;13.040;2024-03-23T11:58:08;13.20;;;3.95;;
20695;SDS011;10507;52.754;13.040;2024-03-23T12:00:34;10.43;;;3.22;;
20695;SDS011;10507;52.754;13.040;2024-03-23T12:03:02;13.75;;;3.38;;
20695;SDS011;10507;52.754;13.040;2024-03-23T12:05:29;14.07;;;3.17;;
20695;SDS011;10507;52.754;13.040;2024-03-23T12:07:55;10.95;;;3.65;;
20695;SDS011;10507;52.754;13.040;2024-03-23T12:10:22;10.15;;;2.75;;
20695;SDS011;10507;52.754;13.040;2024-03-23T12:12:58;12.50;;;3.08;;
20695;SDS011;10507;52.754;13.040;2024-03-23T12:15:26;11.25;;;3.08;;
20695;SDS011;10507;52.754;13.040;2024-03-23T12:17:52;11.43;;;3.33;;
20695;SDS011;10507;52.754;13.040;2024-03-23T12:20:35;9.23;;;2.90;;
20695;SDS011;10507;52.754;13.040;2024-03-23T12:23:06;11.18;;;3.25;;
20695;SDS011;10507;52.754;13.040;2024-03-23T12:25:34;7.50;;;2.47;;
20695;SDS011;10507;52.754;13.040;2024-03-23T12:28:00;9.27;;;2.85;;
20695;SDS011;10507;52.754;13.040;2024-03-23T12:30:27;9.73;;;2.50;;
20695;SDS011;10507;52.754;13.040;2024-03-23T12:32:52;7.22;;;2.13;;
20695;SDS011;10507;52.754;13.040;2024-03-23T12:35:21;9.65;;;2.70;;
20695;SDS011;10507;52.754;13.040;2024-03-23T12:37:46;10.40;;;2.28;;
20695;SDS011;10507;52.754;13.040;2024-03-23T12:40:13;13.38;;;3.08;;
20695;SDS011;10507;52.754;13.040;2024-03-23T12:42:38;11.77;;;2.30;;
20695;SDS011;10507;52.754;13.040;2024-03-23T12:45:05;11.68;;;2.80;;
20695;SDS011;10507;52.754;13.040;2024-03-23T12:47:31;8.10;;;2.83;;
20695;SDS011;10507;52.754;13.040;2024-03-23T12:49:58;8.23;;;2.72;;
20695;SDS011;10507;52.754;13.040;2024-03-23T12:52:25;5.97;;;2.42;;
20695;SDS011;10507;52.754;13.040;2024-03-23T12:54:53;10.00;;;3.40;;
20695;SDS011;10507;52.754;13.040;2024-03-23T12:57:21;8.80;;;3.28;;
20695;SDS011;10507;52.754;13.040;2024-03-23T12:59:48;11.15;;;2.75;;
20695;SDS011;10507;52.754;13.040;2024-03-23T13:02:24;10.73;;;2.83;;
20695;SDS011;10507;52.754;13.040;2024-03-23T13:04:51;11.45;;;3.03;;
20695;SDS011;10507;52.754;13.040;2024-03-23T13:07:17;10.77;;;3.10;;
20695;SDS011;10507;52.754;13.040;2024-03-23T13:09:44;11.52;;;2.75;;
20695;SDS011;10507;52.754;13.040;2024-03-23T13:12:10;6.28;;;2.50;;
20695;SDS011;10507;52.754;13.040;2024-03-23T13:14:37;10.68;;;2.67;;
20695;SDS011;10507;52.754;13.040;2024-03-23T13:17:04;13.30;;;3.08;;
20695;SDS011;10507;52.754;13.040;2024-03-23T13:19:32;13.98;;;3.42;;
20695;SDS011;10507;52.754;13.040;2024-03-23T13:21:58;5.63;;;1.50;;
20695;SDS011;10507;52.754;13.040;2024-03-23T13:24:26;7.15;;;1.48;;
20695;SDS011;10507;52.754;13.040;2024-03-23T13:26:52;8.47;;;1.63;;
20695;SDS011;10507;52.754;13.040;2024-03-23T13:29:20;4.83;;;1.60;;
20695;SDS011;10507;52.754;13.040;2024-03-23T13:31:46;7.83;;;1.90;;
20695;SDS011;10507;52.754;13.040;2024-03-23T13:34:13;4.80;;;1.60;;
20695;SDS011;10507;52.754;13.040;2024-03-23T13:36:41;5.40;;;2.13;;
20695;SDS011;10507;52.754;13.040;2024-03-23T13:39:08;7.30;;;1.63;;
20695;SDS011;10507;52.754;13.040;2024-03-23T13:41:36;4.80;;;1.40;;
20695;SDS011;10507;52.754;13.040;2024-03-23T13:44:04;5.20;;;2.03;;
20695;SDS011;10507;52.754;13.040;2024-03-23T13:46:30;5.00;;;1.60;;
20695;SDS011;10507;52.754;13.040;2024-03-23T13:48:57;2.47;;;1.30;;
20695;SDS011;10507;52.754;13.040;2024-03-23T13:51:23;2.03;;;1.10;;
20695;SDS011;10507;52.754;13.040;2024-03-23T13:53:53;4.53;;;1.40;;
20695;SDS011;10507;52.754;13.040;2024-03-23T13:56:19;4.87;;;1.33;;
20695;SDS011;10507;52.754;13.040;2024-03-23T13:58:46;4.43;;;1.30;;
20695;SDS011;10507;52.754;13.040;2024-03-23T14:01:12;4.67;;;1.60;;
20695;SDS011;10507;52.754;13.040;2024-03-23T14:03:40;3.10;;;1.10;;
20695;SDS011;10507;52.754;13.040;2024-03-23T14:06:06;6.33;;;2.13;;
20695;SDS011;10507;52.754;13.040;2024-03-23T14:08:33;5.47;;;1.47;;
20695;SDS011;10507;52.754;13.040;2024-03-23T14:11:02;4.00;;;1.40;;
20695;SDS011;10507;52.754;13.040;2024-03-23T14:13:30;4.80;;;1.93;;
20695;SDS011;10507;52.754;13.040;2024-03-23T14:15:56;5.17;;;1.70;;
20695;SDS011;10507;52.754;13.040;2024-03-23T14:18:22;2.80;;;1.57;;
20695;SDS011;10507;52.754;13.040;2024-03-23T14:20:48;5.93;;;1.97;;
20695;SDS011;10507;52.754;13.040;2024-03-23T14:23:15;6.23;;;2.33;;
20695;SDS011;10507;52.754;13.040;2024-03-23T14:25:41;7.53;;;2.80;;
20695;SDS011;10507;52.754;13.040;2024-03-23T14:28:09;4.03;;;1.80;;
20695;SDS011;10507;52.754;13.040;2024-03-23T14:30:39;5.43;;;1.97;;
20695;SDS011;10507;52.754;13.040;2024-03-23T14:33:07;6.27;;;1.97;;
20695;SDS011;10507;52.754;13.040;2024-03-23T14:35:33;5.90;;;1.90;;
20695;SDS011;10507;52.754;13.040;2024-03-23T14:37:59;4.77;;;2.00;;
20695;SDS011;10507;52.754;13.040;2024-03-23T14:40:25;4.30;;;2.00;;
20695;SDS011;10507;52.754;13.040;2024-03-23T14:42:52;7.87;;;2.10;;
20695;SDS011;10507;52.754;13.040;2024-03-23T14:45:20;5.80;;;2.07;;
20695;SDS011;10507;52.754;13.040;2024-03-23T14:47:47;6.00;;;2.03;;
20695;SDS011;10507;52.754;13.040;2024-03-23T14:50:13;5.83;;;2.43;;
20695;SDS011;10507;52.754;13.040;2024-03-23T14:52:40;6.27;;;1.93;;
20695;SDS011;10507;52.754;13.040;2024-03-23T14:55:07;8.30;;;2.30;;
20695;SDS011;10507;52.754;13.040;2024-03-23T14:57:35;4.77;;;1.90;;
20695;SDS011;10507;52.754;13.040;2024-03-23T15:00:00;5.63;;;1.53;;
20695;SDS011;10507;52.754;13.040;2024-03-23T15:02:31;7.20;;;2.03;;
20695;SDS011;10507;52.754;13.040;2024-03-23T15:04:57;7.97;;;1.80;;
20695;SDS011;10507;52.754;13.040;2024-03-23T15:07:24;5.57;;;1.50;;
20695;SDS011;10507;52.754;13.040;2024-03-23T15:09:50;5.60;;;2.17;;
20695;SDS011;10507;52.754;13.040;2024-03-23T15:12:16;4.87;;;1.63;;
20695;SDS011;10507;52.754;13.040;2024-03-23T15:14:42;4.57;;;1.73;;
20695;SDS011;10507;52.754;13.040;2024-03-23T15:17:09;7.53;;;1.97;;
20695;SDS011;10507;52.754;13.040;2024-03-23T15:19:36;7.70;;;1.50;;